Aurora, Utah
Current Conditions -  °F | °C
As of 10:55 PM on Wednesday 22 Oct 2014 (Local Time) from KDTA Reporting Station
Clear Clear  
Wind Chill:   Ceiling: Unl
Heat Index:   Visibility: 10mi
Dew Point:   Wind: 6mph
Humidity: 60%   Direction: 80°E
Pressure: 30.17"   Gusts: NA
Location:  38.92°N, 111.93°W
Report Text: KDTA 230455Z AUTO 08005KT 10SM CLR 08/00 A3017 RMK AO1 T00770003
Loading
Personal Weather Stations






























Interactive Weather Map
Tropical Storm Tracking
New forecast layout! Learn more

10-Day Weather Forecast

Advertisements
Track Severe Weather on mobile